Time;durP1;ratioP1;P1;durP2;ratioP2;P2;SDS_P1;SDS_P2;PMS_P1;PMS_P2;Temp;Humidity;BMP_temperature;BMP_pressure;BME280_temperature;BME280_humidity;BME280_pressure;Samples;Min_cycle;Max_cycle;Signal;HPM_P1;HPM_P2
2023/03/19 00:01:11;;;;;;;2.40;2.05;;;16.50;56.50;;;;;;5054518;28;20297;-58
2023/03/19 00:03:36;;;;;;;2.78;1.52;;;16.50;56.50;;;;;;5054704;28;20384;-57
2023/03/19 00:06:02;;;;;;;2.20;2.00;;;16.40;56.50;;;;;;5053471;28;20669;-58
2023/03/19 00:08:28;;;;;;;2.03;1.88;;;16.40;56.50;;;;;;5054560;28;20193;-55
2023/03/19 00:10:53;;;;;;;1.90;1.70;;;16.50;56.50;;;;;;5053584;28;20646;-56
2023/03/19 00:13:19;;;;;;;2.05;1.90;;;16.40;56.50;;;;;;5054254;28;20642;-55
2023/03/19 00:15:45;;;;;;;2.10;1.90;;;16.40;56.50;;;;;;5053868;28;20175;-56
2023/03/19 00:18:11;;;;;;;1.85;1.50;;;16.40;56.50;;;;;;5053088;28;20213;-55
2023/03/19 00:20:36;;;;;;;2.20;1.98;;;16.40;56.50;;;;;;5054042;28;20215;-56
2023/03/19 00:23:02;;;;;;;1.80;1.70;;;16.40;57.10;;;;;;5053925;28;20652;-56
2023/03/19 00:25:27;;;;;;;1.70;1.60;;;16.40;56.50;;;;;;5053194;28;20186;-56
2023/03/19 00:27:53;;;;;;;1.88;1.77;;;16.40;56.50;;;;;;5053818;28;20270;-55
2023/03/19 00:30:20;;;;;;;1.90;1.60;;;16.40;56.50;;;;;;5053999;28;20538;-57
2023/03/19 00:32:46;;;;;;;1.80;1.60;;;16.40;56.50;;;;;;5052757;28;20205;-53
2023/03/19 00:35:11;;;;;;;1.70;1.60;;;16.40;56.50;;;;;;5053869;28;20179;-57
2023/03/19 00:37:37;;;;;;;2.35;1.80;;;16.40;56.50;;;;;;5053862;28;20207;-57
2023/03/19 00:40:03;;;;;;;1.48;1.38;;;16.40;56.50;;;;;;5052947;28;20206;-57
2023/03/19 00:42:29;;;;;;;1.98;1.52;;;16.40;56.40;;;;;;5053978;28;20171;-58
2023/03/19 00:44:55;;;;;;;2.17;1.52;;;16.40;56.50;;;;;;5053559;28;20253;-57
2023/03/19 00:47:21;;;;;;;1.60;1.50;;;16.40;56.50;;;;;;5052977;28;20628;-56
2023/03/19 00:49:47;;;;;;;1.58;1.48;;;16.40;56.50;;;;;;5053605;28;20186;-55
2023/03/19 00:52:12;;;;;;;1.80;1.70;;;16.40;56.40;;;;;;5053746;28;20648;-56
2023/03/19 00:54:38;;;;;;;1.75;1.65;;;16.40;56.50;;;;;;5052797;28;20680;-57
2023/03/19 00:57:03;;;;;;;1.50;1.40;;;16.40;56.40;;;;;;5053156;28;20641;-56
2023/03/19 00:59:29;;;;;;;1.58;1.45;;;16.40;56.50;;;;;;5053369;28;20277;-57
2023/03/19 01:01:54;;;;;;;1.50;1.40;;;16.40;56.40;;;;;;5052388;28;20265;-57
2023/03/19 01:04:20;;;;;;;1.20;1.20;;;16.40;56.50;;;;;;5052175;28;20195;-58
2023/03/19 01:06:45;;;;;;;1.70;1.48;;;16.40;56.40;;;;;;5053064;28;20294;-57
2023/03/19 01:09:11;;;;;;;1.63;1.40;;;16.40;56.40;;;;;;5052443;28;20629;-55
2023/03/19 01:11:37;;;;;;;1.52;1.42;;;16.30;56.40;;;;;;5053446;28;20221;-56
2023/03/19 01:14:02;;;;;;;1.60;1.50;;;16.30;56.30;;;;;;5051621;28;20668;-57
2023/03/19 01:16:28;;;;;;;1.88;1.60;;;16.30;56.40;;;;;;5053049;28;20193;-56
2023/03/19 01:18:53;;;;;;;1.42;1.30;;;16.40;56.40;;;;;;5052827;28;20227;-57
2023/03/19 01:21:20;;;;;;;1.55;1.38;;;16.30;56.30;;;;;;5052636;28;20506;-57
2023/03/19 01:23:45;;;;;;;1.60;1.38;;;16.30;56.30;;;;;;5052888;28;20182;-55
2023/03/19 01:26:11;;;;;;;1.70;1.60;;;16.30;56.30;;;;;;5053057;28;20203;-56
2023/03/19 01:28:37;;;;;;;1.50;1.30;;;16.30;56.30;;;;;;5052203;28;20637;-55
2023/03/19 01:31:05;;;;;;;1.83;1.48;;;16.30;56.30;;;;;;5052223;28;20262;-57
2023/03/19 01:33:32;;;;;;;1.50;1.40;;;16.30;56.40;;;;;;5053209;28;20180;-56
2023/03/19 01:36:01;;;;;;;1.40;1.30;;;16.30;56.30;;;;;;5051883;28;20645;-56
2023/03/19 01:38:27;;;;;;;1.35;1.23;;;16.30;56.40;;;;;;5052947;28;20305;-57
2023/03/19 01:40:52;;;;;;;1.50;1.00;;;16.30;56.30;;;;;;5052727;28;20254;-57
2023/03/19 01:43:20;;;;;;;1.85;1.60;;;16.30;56.30;;;;;;5052107;28;20512;-58
2023/03/19 01:45:46;;;;;;;1.27;1.20;;;16.30;56.30;;;;;;5052346;28;20286;-57
2023/03/19 01:48:19;;;;;;;1.60;1.50;;;16.30;56.30;;;;;;5052865;28;20252;-57
2023/03/19 01:50:44;;;;;;;1.42;1.33;;;16.30;56.30;;;;;;5050704;28;20187;-56
2023/03/19 01:53:11;;;;;;;1.42;1.33;;;16.20;56.30;;;;;;5051452;28;20266;-55
2023/03/19 01:55:36;;;;;;;1.63;1.50;;;16.30;56.30;;;;;;5051524;28;20179;-53
2023/03/19 01:58:02;;;;;;;1.48;1.33;;;16.30;56.30;;;;;;5051660;28;20221;-56
2023/03/19 02:00:28;;;;;;;1.40;1.30;;;16.30;56.30;;;;;;5051440;28;20181;-56
2023/03/19 02:02:54;;;;;;;1.50;1.40;;;16.30;56.30;;;;;;5052439;28;20175;-57
2023/03/19 02:05:24;;;;;;;1.27;1.17;;;16.30;56.30;;;;;;5050619;28;20175;-57
2023/03/19 02:07:51;;;;;;;1.20;1.20;;;16.30;56.30;;;;;;5052139;28;20242;-55
2023/03/19 02:10:17;;;;;;;1.27;1.17;;;16.30;56.30;;;;;;5051250;28;20179;-51
2023/03/19 02:12:42;;;;;;;1.27;1.17;;;16.30;56.30;;;;;;5050225;28;20182;-55
2023/03/19 02:15:08;;;;;;;1.45;1.35;;;16.20;56.20;;;;;;5052402;28;20171;-55
2023/03/19 02:17:33;;;;;;;1.40;1.30;;;16.20;56.20;;;;;;5050536;28;20183;-56
2023/03/19 02:20:23;;;;;;;1.20;1.10;;;16.30;56.30;;;;;;5050637;28;20215;-57
2023/03/19 02:23:14;;;;;;;1.35;1.25;;;16.20;56.20;;;;;;5052222;28;20183;-54
2023/03/19 02:25:43;;;;;;;1.42;1.33;;;16.30;56.20;;;;;;5050808;28;20178;-56
2023/03/19 02:28:09;;;;;;;1.30;1.20;;;16.30;56.30;;;;;;5052517;28;20189;-57
2023/03/19 02:30:35;;;;;;;1.45;1.30;;;16.30;56.20;;;;;;5051341;28;20199;-56
2023/03/19 02:33:01;;;;;;;1.50;1.40;;;16.20;56.20;;;;;;5051467;28;20677;-55
2023/03/19 02:35:26;;;;;;;1.73;1.40;;;16.20;56.20;;;;;;5052337;28;20213;-56
2023/03/19 02:37:52;;;;;;;1.15;1.05;;;16.20;56.80;;;;;;5052066;28;20175;-56
2023/03/19 02:40:23;;;;;;;1.48;1.38;;;16.20;56.20;;;;;;5051515;28;20222;-56
2023/03/19 02:42:49;;;;;;;1.50;1.40;;;16.20;56.20;;;;;;5053413;28;20699;-57
2023/03/19 02:45:14;;;;;;;1.30;1.20;;;16.20;56.20;;;;;;5055954;28;20175;-56
2023/03/19 02:47:40;;;;;;;1.33;1.23;;;16.20;56.20;;;;;;5053978;28;20241;-57
2023/03/19 02:50:06;;;;;;;1.40;1.30;;;16.20;56.20;;;;;;5055636;28;20684;-56
2023/03/19 02:52:32;;;;;;;1.23;1.08;;;16.20;56.20;;;;;;5055213;28;20185;-57
2023/03/19 02:54:58;;;;;;;1.00;1.00;;;16.20;56.20;;;;;;5055481;28;20168;-55
2023/03/19 02:57:23;;;;;;;1.95;1.23;;;16.20;56.20;;;;;;5055704;28;20187;-54
2023/03/19 02:59:49;;;;;;;0.93;0.93;;;16.20;56.20;;;;;;5054694;28;20269;-57
2023/03/19 03:02:14;;;;;;;1.23;1.20;;;16.20;56.20;;;;;;5055612;28;20305;-57
2023/03/19 03:04:40;;;;;;;1.10;1.10;;;16.20;56.20;;;;;;5055604;28;20221;-57
2023/03/19 03:07:07;;;;;;;1.42;1.33;;;16.20;56.20;;;;;;5054668;28;20230;-57
2023/03/19 03:09:33;;;;;;;1.30;1.20;;;16.20;56.20;;;;;;5055676;28;20217;-54
2023/03/19 03:11:58;;;;;;;1.27;1.20;;;16.20;56.20;;;;;;5055344;28;20546;-55
2023/03/19 03:14:24;;;;;;;1.10;1.10;;;16.20;56.20;;;;;;5054811;28;20636;-55
2023/03/19 03:16:49;;;;;;;1.00;1.00;;;16.20;56.20;;;;;;5055061;28;20175;-56
2023/03/19 03:19:15;;;;;;;1.20;1.10;;;16.20;56.20;;;;;;5055207;28;20678;-56
2023/03/19 03:21:41;;;;;;;1.25;1.15;;;16.20;56.20;;;;;;5054867;28;20711;-57
2023/03/19 03:24:08;;;;;;;1.67;1.05;;;16.20;56.20;;;;;;5055456;28;20633;-56
2023/03/19 03:26:34;;;;;;;1.13;1.10;;;16.20;56.20;;;;;;5055157;28;20206;-56
2023/03/19 03:29:00;;;;;;;1.40;1.30;;;16.20;56.20;;;;;;5054272;28;20250;-52
2023/03/19 03:31:25;;;;;;;1.23;1.20;;;16.20;56.20;;;;;;5055113;28;20651;-56
2023/03/19 03:33:51;;;;;;;1.35;1.25;;;16.20;56.20;;;;;;5055136;28;20175;-57
2023/03/19 03:36:17;;;;;;;1.30;1.20;;;16.20;56.20;;;;;;5054248;28;20178;-56
2023/03/19 03:38:43;;;;;;;1.20;1.10;;;16.20;56.20;;;;;;5054622;28;20210;-56
2023/03/19 03:41:08;;;;;;;1.13;1.02;;;16.20;56.20;;;;;;5055163;28;20167;-57
2023/03/19 03:43:34;;;;;;;1.10;1.00;;;16.10;56.20;;;;;;5054190;28;20183;-56
2023/03/19 03:46:00;;;;;;;0.90;0.80;;;16.20;56.20;;;;;;5054321;28;20243;-57
2023/03/19 03:48:25;;;;;;;1.52;1.33;;;16.10;56.20;;;;;;5054721;28;20171;-57
2023/03/19 03:50:51;;;;;;;1.50;1.10;;;16.20;56.20;;;;;;5053961;28;20178;-57
2023/03/19 03:53:16;;;;;;;1.50;1.13;;;16.10;56.20;;;;;;5054111;28;20175;-56
2023/03/19 03:55:42;;;;;;;1.20;1.10;;;16.10;56.20;;;;;;5054501;28;20177;-55
2023/03/19 03:58:07;;;;;;;1.52;1.15;;;16.10;56.20;;;;;;5053969;28;20629;-55
2023/03/19 04:00:33;;;;;;;1.30;1.20;;;16.10;56.20;;;;;;5054611;28;20206;-57
2023/03/19 04:02:58;;;;;;;1.27;1.17;;;16.10;56.20;;;;;;5053475;28;20217;-56
2023/03/19 04:05:24;;;;;;;1.05;0.90;;;16.10;56.20;;;;;;5054727;28;20171;-57
2023/03/19 04:07:50;;;;;;;1.40;1.30;;;16.10;56.20;;;;;;5054682;28;20265;-57
2023/03/19 04:10:16;;;;;;;1.33;1.00;;;16.10;56.20;;;;;;5054032;28;20254;-55
2023/03/19 04:12:41;;;;;;;1.17;1.15;;;16.10;56.20;;;;;;5054419;28;20170;-56
2023/03/19 04:15:08;;;;;;;0.93;0.90;;;16.10;56.20;;;;;;5054524;28;20207;-56
2023/03/19 04:17:34;;;;;;;1.15;0.90;;;16.10;56.20;;;;;;5053430;28;20611;-57
2023/03/19 04:20:00;;;;;;;1.15;1.02;;;16.10;56.20;;;;;;5053803;28;20297;-56
2023/03/19 04:22:26;;;;;;;1.10;1.00;;;16.10;56.20;;;;;;5054428;28;20181;-57
2023/03/19 04:24:52;;;;;;;1.42;1.08;;;16.10;56.20;;;;;;5053170;28;20543;-56
2023/03/19 04:27:17;;;;;;;1.10;1.00;;;16.10;56.20;;;;;;5054096;28;20570;-55
2023/03/19 04:29:43;;;;;;;1.35;1.25;;;16.10;56.20;;;;;;5053978;28;20513;-56
2023/03/19 04:32:08;;;;;;;1.25;1.15;;;16.10;56.20;;;;;;5053243;28;20228;-57
2023/03/19 04:34:34;;;;;;;1.35;1.25;;;16.10;56.20;;;;;;5053927;28;20171;-55
2023/03/19 04:37:00;;;;;;;1.27;1.17;;;16.10;56.20;;;;;;5053752;28;20183;-54
2023/03/19 04:39:26;;;;;;;1.13;1.02;;;16.10;56.20;;;;;;5053229;28;20167;-55
2023/03/19 04:41:51;;;;;;;1.20;1.10;;;16.10;56.20;;;;;;5053597;28;20175;-56
2023/03/19 04:44:17;;;;;;;1.45;1.27;;;16.00;56.20;;;;;;5053994;28;20546;-56
2023/03/19 04:46:46;;;;;;;1.45;1.20;;;16.10;56.20;;;;;;5052682;28;20674;-57
2023/03/19 04:49:11;;;;;;;1.00;1.00;;;16.10;56.20;;;;;;5053642;28;20683;-56
2023/03/19 04:51:37;;;;;;;1.20;1.10;;;16.10;56.20;;;;;;5053691;28;20183;-55
2023/03/19 04:54:04;;;;;;;1.10;1.10;;;16.10;56.30;;;;;;5052723;28;20182;-52
2023/03/19 04:56:29;;;;;;;1.20;1.05;;;16.10;56.20;;;;;;5053629;28;20237;-53
2023/03/19 04:58:55;;;;;;;1.50;1.00;;;16.10;56.20;;;;;;5053197;28;20572;-53
2023/03/19 05:01:21;;;;;;;1.00;1.00;;;16.10;56.20;;;;;;5052776;28;20177;-56
2023/03/19 05:03:46;;;;;;;0.80;0.80;;;16.10;56.30;;;;;;5053088;28;20183;-56
2023/03/19 05:06:12;;;;;;;0.90;0.90;;;16.00;56.20;;;;;;5052745;28;20237;-55
2023/03/19 05:08:37;;;;;;;1.30;1.20;;;16.10;56.30;;;;;;5053573;28;20277;-56
2023/03/19 05:11:03;;;;;;;1.52;1.40;;;16.00;56.30;;;;;;5053012;28;20183;-54
2023/03/19 05:13:29;;;;;;;1.63;1.52;;;16.00;56.30;;;;;;5052400;28;20217;-55
2023/03/19 05:15:54;;;;;;;0.90;0.90;;;16.00;56.20;;;;;;5052860;28;20166;-56
2023/03/19 05:18:20;;;;;;;1.55;1.02;;;16.00;56.20;;;;;;5052977;28;20179;-56
2023/03/19 05:20:45;;;;;;;1.08;1.00;;;16.00;56.20;;;;;;5052316;28;20179;-57
2023/03/19 05:23:12;;;;;;;1.02;1.02;;;16.00;56.30;;;;;;5053222;28;20171;-55
2023/03/19 05:25:37;;;;;;;1.30;1.20;;;16.00;56.20;;;;;;5053001;28;20229;-55
2023/03/19 05:28:03;;;;;;;1.65;1.55;;;16.00;56.30;;;;;;5052006;28;20167;-54
2023/03/19 05:30:29;;;;;;;1.42;1.23;;;16.00;56.20;;;;;;5052905;28;20332;-54
2023/03/19 05:32:56;;;;;;;1.00;1.00;;;16.00;56.20;;;;;;5052917;28;20225;-56
2023/03/19 05:35:21;;;;;;;1.15;1.05;;;16.00;56.30;;;;;;5052518;28;20189;-56
2023/03/19 05:37:47;;;;;;;1.40;1.30;;;15.90;56.20;;;;;;5052657;28;20270;-56
2023/03/19 05:40:12;;;;;;;1.35;1.10;;;16.00;56.30;;;;;;5052613;28;20197;-57
2023/03/19 05:42:38;;;;;;;1.20;1.10;;;16.00;56.20;;;;;;5052090;28;20232;-58
2023/03/19 05:45:04;;;;;;;1.10;1.10;;;15.90;56.20;;;;;;5052770;28;20175;-54
2023/03/19 05:47:30;;;;;;;1.20;1.10;;;16.00;56.20;;;;;;5052962;28;20214;-54
2023/03/19 05:49:55;;;;;;;1.25;1.15;;;16.00;56.20;;;;;;5052031;28;20175;-55
2023/03/19 05:52:21;;;;;;;1.30;1.20;;;16.00;56.20;;;;;;5052889;28;20530;-55
2023/03/19 05:54:48;;;;;;;1.13;1.00;;;16.00;56.30;;;;;;5052499;28;20269;-55
2023/03/19 05:57:14;;;;;;;1.40;1.30;;;16.00;56.30;;;;;;5052024;28;20179;-55
2023/03/19 05:59:40;;;;;;;1.33;1.25;;;16.00;56.30;;;;;;5053032;28;20210;-56
2023/03/19 06:02:06;;;;;;;1.55;1.45;;;16.00;56.30;;;;;;5052504;28;20203;-57
2023/03/19 06:04:31;;;;;;;0.98;0.98;;;16.00;56.30;;;;;;5051872;28;20182;-56
2023/03/19 06:06:57;;;;;;;1.45;1.30;;;16.00;56.30;;;;;;5052273;28;20215;-56
2023/03/19 06:09:23;;;;;;;1.55;1.45;;;16.00;56.30;;;;;;5052628;28;20172;-56
2023/03/19 06:11:48;;;;;;;1.60;1.48;;;16.00;56.30;;;;;;5051661;28;20657;-54
2023/03/19 06:14:14;;;;;;;1.15;1.13;;;16.00;56.30;;;;;;5052744;28;20175;-55
2023/03/19 06:16:39;;;;;;;1.40;1.35;;;16.00;56.30;;;;;;5052735;28;20186;-56
2023/03/19 06:19:05;;;;;;;1.30;1.20;;;16.00;56.30;;;;;;5056110;28;20222;-55
2023/03/19 06:21:31;;;;;;;1.40;1.30;;;16.00;56.30;;;;;;5056653;28;20174;-55
2023/03/19 06:23:56;;;;;;;1.05;1.05;;;16.00;56.30;;;;;;5055628;28;20175;-55
2023/03/19 06:26:22;;;;;;;1.42;1.33;;;16.00;56.30;;;;;;5056335;28;20717;-57
2023/03/19 06:28:48;;;;;;;1.60;1.50;;;16.00;56.30;;;;;;5056105;28;20183;-55
2023/03/19 06:31:13;;;;;;;1.33;1.23;;;15.90;56.30;;;;;;5055524;28;20265;-56
2023/03/19 06:33:39;;;;;;;1.60;1.35;;;15.90;56.30;;;;;;5056295;28;20254;-55
2023/03/19 06:36:04;;;;;;;1.90;1.80;;;16.00;56.30;;;;;;5055861;28;20194;-57
2023/03/19 06:38:30;;;;;;;1.50;1.40;;;15.90;56.30;;;;;;5055447;28;20178;-56
2023/03/19 06:40:56;;;;;;;2.10;1.42;;;16.00;56.30;;;;;;5055881;28;20187;-56
2023/03/19 06:43:21;;;;;;;1.83;1.20;;;15.90;56.30;;;;;;5056056;28;20182;-56
2023/03/19 06:45:47;;;;;;;1.63;1.52;;;16.00;56.30;;;;;;5055229;28;20186;-56
2023/03/19 06:48:13;;;;;;;1.73;1.60;;;15.90;56.30;;;;;;5056002;28;20183;-56
2023/03/19 06:50:39;;;;;;;1.52;1.40;;;15.90;56.30;;;;;;5055940;28;20202;-56
2023/03/19 06:53:04;;;;;;;1.60;1.50;;;15.90;56.20;;;;;;5054958;28;20180;-55
2023/03/19 06:55:30;;;;;;;1.60;1.50;;;15.90;56.30;;;;;;5055836;28;20171;-55
2023/03/19 06:57:55;;;;;;;2.13;1.70;;;15.90;56.20;;;;;;5055472;28;20229;-56
2023/03/19 07:00:21;;;;;;;1.50;1.40;;;15.90;56.40;;;;;;5054969;28;20535;-57
2023/03/19 07:02:47;;;;;;;1.80;1.70;;;15.90;56.40;;;;;;5055528;28;20179;-57
2023/03/19 07:05:12;;;;;;;1.45;1.35;;;16.00;56.60;;;;;;5055913;28;20179;-57
2023/03/19 07:07:38;;;;;;;2.33;1.77;;;16.00;56.60;;;;;;5054846;28;20211;-57
2023/03/19 07:10:04;;;;;;;1.52;1.42;;;16.10;56.60;;;;;;5055320;28;20167;-56
2023/03/19 07:12:29;;;;;;;1.38;1.27;;;16.10;56.50;;;;;;5055556;28;20174;-55
2023/03/19 07:14:55;;;;;;;1.75;1.65;;;16.20;56.40;;;;;;5054665;28;20167;-56
2023/03/19 07:17:21;;;;;;;1.48;1.38;;;16.20;56.40;;;;;;5055586;28;20202;-56
2023/03/19 07:19:46;;;;;;;1.73;1.63;;;16.20;56.40;;;;;;5054628;28;20223;-57
2023/03/19 07:22:12;;;;;;;1.65;1.55;;;16.30;56.40;;;;;;5055115;28;20516;-54
2023/03/19 07:24:37;;;;;;;1.23;1.13;;;16.40;56.30;;;;;;5055452;28;20308;-54
2023/03/19 07:27:03;;;;;;;1.30;1.20;;;16.50;56.10;;;;;;5054144;28;20290;-55
2023/03/19 07:29:29;;;;;;;1.42;1.33;;;16.70;56.10;;;;;;5054060;28;20303;-56
2023/03/19 07:31:54;;;;;;;1.48;1.38;;;16.80;55.90;;;;;;5054972;28;20300;-55
2023/03/19 07:34:20;;;;;;;1.48;1.38;;;16.90;55.60;;;;;;5054588;28;20194;-56
2023/03/19 07:36:46;;;;;;;1.52;1.15;;;17.10;55.30;;;;;;5054818;28;20545;-56
2023/03/19 07:39:11;;;;;;;1.40;1.20;;;17.20;55.10;;;;;;5055029;28;20171;-56
2023/03/19 07:41:37;;;;;;;1.38;1.27;;;17.30;55.00;;;;;;5054200;28;20187;-57
2023/03/19 07:44:03;;;;;;;1.20;1.20;;;17.30;54.90;;;;;;5054684;28;20688;-58
2023/03/19 07:46:28;;;;;;;1.50;1.30;;;17.40;54.80;;;;;;5054589;28;20210;-56
2023/03/19 07:48:54;;;;;;;1.67;1.40;;;17.40;54.80;;;;;;5053917;28;20171;-56
2023/03/19 07:51:20;;;;;;;1.20;1.10;;;17.50;54.70;;;;;;5054598;28;20587;-55
2023/03/19 07:53:45;;;;;;;1.30;1.20;;;17.50;54.70;;;;;;5054345;28;20631;-65
2023/03/19 07:56:11;;;;;;;1.30;1.20;;;17.70;54.50;;;;;;5053791;28;20233;-65
2023/03/19 07:58:37;;;;;;;1.70;1.33;;;17.70;54.60;;;;;;5054607;28;20579;-64
2023/03/19 08:01:03;;;;;;;1.50;1.40;;;17.70;54.60;;;;;;5054356;28;20245;-65
2023/03/19 08:03:28;;;;;;;2.20;1.48;;;17.70;54.80;;;;;;5053675;28;20545;-67
2023/03/19 08:05:54;;;;;;;1.50;1.40;;;17.70;55.00;;;;;;5054196;28;20270;-67
2023/03/19 08:08:19;;;;;;;1.50;1.40;;;17.80;55.10;;;;;;5054406;28;20206;-65
2023/03/19 08:10:46;;;;;;;5.03;2.60;;;17.80;55.20;;;;;;5053191;28;20175;-64
2023/03/19 08:13:13;;;;;;;2.80;1.95;;;18.10;54.90;;;;;;5054501;28;20585;-68
2023/03/19 08:15:38;;;;;;;2.08;1.88;;;18.10;55.00;;;;;;5054191;28;20634;-65
2023/03/19 08:18:04;;;;;;;2.22;2.03;;;18.10;54.80;;;;;;5053097;28;20175;-64
2023/03/19 08:20:30;;;;;;;2.30;2.10;;;18.00;55.20;;;;;;5053896;28;20222;-68
2023/03/19 08:22:56;;;;;;;6.00;3.03;;;17.80;56.20;;;;;;5053466;28;20186;-68
2023/03/19 08:25:22;;;;;;;4.40;2.22;;;17.80;56.10;;;;;;5053129;28;20202;-69
2023/03/19 08:27:47;;;;;;;3.50;2.15;;;17.60;56.20;;;;;;5053769;28;20218;-69
2023/03/19 08:30:13;;;;;;;4.55;2.20;;;17.50;56.40;;;;;;5053294;28;20182;-71
2023/03/19 08:32:39;;;;;;;2.28;1.98;;;17.50;56.50;;;;;;5053716;28;20174;-72
2023/03/19 08:35:05;;;;;;;3.33;2.20;;;17.40;56.60;;;;;;5053502;28;20171;-68
2023/03/19 08:37:30;;;;;;;3.88;2.03;;;17.40;56.60;;;;;;5052514;28;20748;-68
2023/03/19 08:39:56;;;;;;;3.83;1.92;;;17.40;57.20;;;;;;5052298;28;20171;-66
2023/03/19 08:42:21;;;;;;;5.88;2.45;;;17.40;57.40;;;;;;5053057;28;20175;-66
2023/03/19 08:44:47;;;;;;;2.08;1.80;;;17.40;58.10;;;;;;5052040;28;20274;-66
2023/03/19 08:47:13;;;;;;;2.17;1.98;;;17.40;57.50;;;;;;5052987;28;20202;-66
2023/03/19 08:49:39;;;;;;;2.33;1.80;;;17.40;57.60;;;;;;5052938;28;20167;-66
2023/03/19 08:52:05;;;;;;;4.55;2.05;;;17.40;57.60;;;;;;5051975;28;20216;-65
2023/03/19 08:54:30;;;;;;;2.22;1.90;;;17.40;57.60;;;;;;5052797;28;20167;-66
2023/03/19 08:56:56;;;;;;;3.90;2.25;;;17.40;57.60;;;;;;5052158;28;20203;-66
2023/03/19 08:59:21;;;;;;;2.55;1.98;;;17.40;57.60;;;;;;5052215;28;20246;-69
2023/03/19 09:01:51;;;;;;;2.08;1.80;;;17.40;57.60;;;;;;5052462;28;20263;-68
2023/03/19 09:04:17;;;;;;;2.28;1.90;;;17.40;57.70;;;;;;5052703;28;20195;-68
2023/03/19 09:06:43;;;;;;;4.45;2.10;;;17.30;57.70;;;;;;5051680;28;20257;-66
2023/03/19 09:09:09;;;;;;;2.83;1.75;;;17.30;57.70;;;;;;5052681;28;20263;-65
2023/03/19 09:11:35;;;;;;;2.10;1.90;;;17.30;57.80;;;;;;5052558;28;20261;-67
2023/03/19 09:14:00;;;;;;;3.80;1.75;;;17.30;57.80;;;;;;5051573;28;20197;-65
2023/03/19 09:16:26;;;;;;;2.80;1.98;;;17.30;57.90;;;;;;5052543;28;20220;-66
2023/03/19 09:18:51;;;;;;;3.72;2.17;;;17.30;58.00;;;;;;5052218;28;20215;-65
2023/03/19 09:21:17;;;;;;;6.95;1.95;;;17.30;58.00;;;;;;5052043;28;20261;-65
2023/03/19 09:23:43;;;;;;;4.50;2.05;;;17.30;57.90;;;;;;5052118;28;20167;-64
2023/03/19 09:26:08;;;;;;;1.73;1.63;;;17.30;57.90;;;;;;5052690;28;20240;-66
2023/03/19 09:28:34;;;;;;;2.92;1.92;;;17.30;57.90;;;;;;5051805;28;20175;-65
2023/03/19 09:31:05;;;;;;;2.67;1.77;;;17.30;57.90;;;;;;5051863;28;20198;-69
2023/03/19 09:33:31;;;;;;;1.88;1.70;;;17.30;57.90;;;;;;5051713;28;20174;-72
2023/03/19 09:35:57;;;;;;;2.10;1.73;;;17.30;57.90;;;;;;5051819;28;20171;-65
2023/03/19 09:38:22;;;;;;;3.50;2.50;;;17.30;57.80;;;;;;5052080;28;20171;-64
2023/03/19 09:40:55;;;;;;;1.90;1.80;;;17.30;57.70;;;;;;5050663;28;20183;-64
2023/03/19 09:43:35;;;;;;;2.67;1.60;;;17.40;57.70;;;;;;5051173;28;20174;-65
2023/03/19 09:46:02;;;;;;;3.30;1.92;;;17.40;57.60;;;;;;5050594;28;20250;-65
2023/03/19 09:48:34;;;;;;;2.05;1.85;;;17.40;57.60;;;;;;5049916;28;20552;-64
2023/03/19 09:51:00;;;;;;;2.35;1.63;;;17.50;57.50;;;;;;5050305;28;20171;-64
2023/03/19 09:53:39;;;;;;;2.70;1.77;;;17.60;57.40;;;;;;5050881;28;20167;-64
2023/03/19 09:56:06;;;;;;;4.40;2.00;;;17.60;57.20;;;;;;5047296;28;20602;-64
2023/03/19 09:58:33;;;;;;;2.17;1.90;;;17.60;57.20;;;;;;5050931;28;20178;-67
2023/03/19 10:00:59;;;;;;;2.75;1.98;;;17.60;57.30;;;;;;5050140;28;20175;-66
2023/03/19 10:03:29;;;;;;;2.30;1.70;;;17.60;57.10;;;;;;5049790;28;20225;-65
2023/03/19 10:06:40;;;;;;;2.30;2.00;;;17.70;58.00;;;;;;5050423;28;20306;-65
2023/03/19 10:09:28;;;;;;;2.10;1.67;;;17.70;57.20;;;;;;5049257;28;20189;-64
2023/03/19 10:12:04;;;;;;;4.60;2.28;;;17.70;57.20;;;;;;5052299;28;20171;-65
2023/03/19 10:14:54;;;;;;;2.13;1.90;;;17.70;57.20;;;;;;5050832;28;20621;-66
2023/03/19 10:17:23;;;;;;;2.38;1.73;;;17.70;57.20;;;;;;5051619;28;20217;-66
2023/03/19 10:19:54;;;;;;;14.98;2.47;;;17.70;57.20;;;;;;5050337;28;20230;-65
2023/03/19 10:22:49;;;;;;;2.20;2.00;;;17.80;57.20;;;;;;5050836;28;20611;-65
2023/03/19 10:25:25;;;;;;;2.30;2.08;;;17.80;57.10;;;;;;5051240;28;20183;-65
2023/03/19 10:27:58;;;;;;;2.00;1.88;;;17.90;57.10;;;;;;5050633;28;20648;-67
2023/03/19 10:30:23;;;;;;;2.67;2.05;;;17.90;57.10;;;;;;5050384;28;20199;-67
2023/03/19 10:32:58;;;;;;;2.17;1.98;;;18.00;57.00;;;;;;5050908;28;20634;-70
2023/03/19 10:35:26;;;;;;;2.17;1.98;;;18.00;56.90;;;;;;5051154;28;20178;-67
2023/03/19 10:37:54;;;;;;;2.75;1.98;;;18.10;56.90;;;;;;5050069;28;20176;-66
2023/03/19 10:40:33;;;;;;;2.35;2.15;;;18.00;56.90;;;;;;5052133;28;20187;-66
2023/03/19 10:43:19;;;;;;;2.13;1.80;;;17.90;57.10;;;;;;5050553;28;20208;-67
2023/03/19 10:45:45;;;;;;;2.53;1.90;;;18.00;57.10;;;;;;5049849;28;20186;-66
2023/03/19 10:48:12;;;;;;;3.30;2.25;;;17.90;57.20;;;;;;5051713;28;20215;-66
2023/03/19 10:50:42;;;;;;;3.83;2.03;;;18.00;57.10;;;;;;5051938;28;20262;-66
2023/03/19 10:53:13;;;;;;;2.28;2.08;;;18.00;57.10;;;;;;5049888;28;20723;-65
2023/03/19 10:56:08;;;;;;;4.60;2.10;;;18.00;57.10;;;;;;5052070;28;20175;-66
2023/03/19 10:58:34;;;;;;;2.38;2.17;;;17.90;57.10;;;;;;5043148;28;20179;-66
2023/03/19 11:01:10;;;;;;;2.10;1.98;;;17.90;57.30;;;;;;5051574;28;20668;-73
2023/03/19 11:03:56;;;;;;;2.05;1.85;;;17.90;57.40;;;;;;5052707;28;20645;-67
2023/03/19 11:06:32;;;;;;;5.00;2.03;;;18.00;57.30;;;;;;5054878;28;20203;-67
2023/03/19 11:09:08;;;;;;;1.90;1.80;;;18.00;57.10;;;;;;5055349;28;20198;-72
2023/03/19 11:11:46;;;;;;;3.83;2.58;;;18.00;57.20;;;;;;5055278;28;20210;-67
2023/03/19 11:14:19;;;;;;;4.32;2.30;;;18.10;57.10;;;;;;5053228;28;20179;-69
2023/03/19 11:16:54;;;;;;;2.60;2.28;;;18.10;57.00;;;;;;5053830;28;20179;-67
2023/03/19 11:19:22;;;;;;;2.50;2.17;;;18.20;57.00;;;;;;5052858;28;20725;-66
2023/03/19 11:22:06;;;;;;;2.55;2.35;;;18.20;56.90;;;;;;5054989;28;20179;-65
2023/03/19 11:24:33;;;;;;;4.43;2.13;;;18.20;56.90;;;;;;5055070;28;20203;-66
2023/03/19 11:26:59;;;;;;;2.75;2.30;;;18.10;56.90;;;;;;5054163;28;20380;-66
2023/03/19 11:29:26;;;;;;;2.38;2.00;;;18.30;56.90;;;;;;5055198;28;20580;-71
2023/03/19 11:32:10;;;;;;;2.30;1.95;;;18.30;56.80;;;;;;5054288;28;20183;-68
2023/03/19 11:35:04;;;;;;;3.38;2.35;;;18.20;57.10;;;;;;5054298;28;20183;-72
2023/03/19 11:37:39;;;;;;;2.85;2.47;;;18.30;57.00;;;;;;5052166;28;20183;-72
2023/03/19 11:40:20;;;;;;;4.90;2.30;;;18.30;57.20;;;;;;5052913;28;20178;-71
2023/03/19 11:43:10;;;;;;;9.85;2.60;;;18.30;57.00;;;;;;5054597;28;20175;-67
2023/03/19 11:46:07;;;;;;;4.72;2.80;;;18.30;57.10;;;;;;5054974;28;20190;-69
2023/03/19 11:49:01;;;;;;;4.82;2.63;;;18.40;57.00;;;;;;5052085;28;20206;-72
2023/03/19 11:51:31;;;;;;;7.57;3.28;;;18.40;57.30;;;;;;5054375;28;20186;-68
2023/03/19 11:54:04;;;;;;;7.82;3.83;;;18.50;57.30;;;;;;5053202;28;20189;-67
2023/03/19 11:56:46;;;;;;;6.32;4.00;;;18.50;57.40;;;;;;5052231;28;20177;-68
2023/03/19 11:59:38;;;;;;;7.40;3.95;;;18.50;57.30;;;;;;5053410;28;20175;-69
2023/03/19 12:02:26;;;;;;;5.70;3.75;;;18.50;57.40;;;;;;5052433;28;20179;-71
2023/03/19 12:04:54;;;;;;;6.03;4.05;;;18.50;57.40;;;;;;5053115;28;20182;-68
2023/03/19 12:07:38;;;;;;;6.68;3.60;;;18.50;57.30;;;;;;5054329;28;20248;-67
2023/03/19 12:10:25;;;;;;;6.38;3.75;;;18.50;57.50;;;;;;5052230;28;20601;-67
2023/03/19 12:13:16;;;;;;;9.10;3.83;;;18.50;57.30;;;;;;5052752;28;20199;-67
2023/03/19 12:16:10;;;;;;;6.90;3.63;;;18.60;57.30;;;;;;5051328;28;20256;-67
2023/03/19 12:19:18;;;;;;;5.40;3.50;;;18.70;57.30;;;;;;5052499;28;20207;-67
2023/03/19 12:21:55;;;;;;;5.18;3.80;;;18.70;57.30;;;;;;5042836;28;20282;-68
2023/03/19 12:24:32;;;;;;;9.43;4.03;;;18.70;57.10;;;;;;5053494;28;20250;-67
2023/03/19 12:27:20;;;;;;;5.60;3.60;;;18.70;57.30;;;;;;5052293;28;20219;-69
2023/03/19 12:30:05;;;;;;;4.85;3.67;;;18.60;57.50;;;;;;5051339;28;20352;-70
2023/03/19 12:32:54;;;;;;;8.65;4.22;;;18.60;57.40;;;;;;5052497;28;20293;-70
2023/03/19 12:35:23;;;;;;;9.98;5.70;;;18.60;57.50;;;;;;5052259;28;20179;-69
2023/03/19 12:38:09;;;;;;;9.30;5.75;;;18.60;57.50;;;;;;5051246;28;20210;-74
2023/03/19 12:40:37;;;;;;;9.50;5.03;;;18.60;57.60;;;;;;5052346;28;20178;-73
2023/03/19 12:43:06;;;;;;;13.25;6.00;;;18.60;57.70;;;;;;5051867;28;20517;-74
2023/03/19 12:45:43;;;;;;;11.15;5.28;;;18.70;57.60;;;;;;5051515;28;20171;-75
2023/03/19 12:48:23;;;;;;;12.57;5.18;;;18.70;57.40;;;;;;5052282;28;20371;-76
2023/03/19 12:50:51;;;;;;;11.70;5.13;;;18.70;57.40;;;;;;5050894;28;20630;-74
2023/03/19 12:54:06;;;;;;;9.30;5.68;;;18.80;57.40;;;;;;5051941;28;20190;-74